Time;durP1;ratioP1;P1;durP2;ratioP2;P2;SDS_P1;SDS_P2;PMS_P1;PMS_P2;Temp;Humidity;BMP_temperature;BMP_pressure;BME280_temperature;BME280_humidity;BME280_pressure;Samples;Min_cycle;Max_cycle;Signal;HPM_P1;HPM_P2
2022/01/19 00:01:22;;;;;;;7.20;5.40;;;8.70;79.80;;;;;;5120886;28;20417;-45
2022/01/19 00:03:47;;;;;;;5.73;5.23;;;8.20;79.50;;;;;;5119867;28;20434;-45
2022/01/19 00:06:13;;;;;;;7.80;6.77;;;7.70;79.40;;;;;;5101537;28;20425;-45
2022/01/19 00:08:39;;;;;;;6.87;6.17;;;7.30;79.70;;;;;;5119490;28;20172;-45
2022/01/19 00:11:05;;;;;;;9.40;5.87;;;7.00;80.20;;;;;;5119061;28;20258;-45
2022/01/19 00:13:31;;;;;;;8.70;6.80;;;6.70;80.60;;;;;;5100161;28;20417;-45
2022/01/19 00:15:56;;;;;;;6.60;5.90;;;6.40;81.10;;;;;;5118719;28;20214;-45
2022/01/19 00:18:24;;;;;;;6.77;6.13;;;6.10;81.50;;;;;;5118384;28;20168;-45
2022/01/19 00:20:50;;;;;;;9.03;6.67;;;5.90;81.90;;;;;;5100651;28;20165;-45
2022/01/19 00:23:16;;;;;;;9.50;6.50;;;5.70;82.30;;;;;;5099713;28;20487;-45
2022/01/19 00:25:45;;;;;;;7.27;6.13;;;5.50;82.60;;;;;;5101532;28;20424;-51
2022/01/19 00:28:11;;;;;;;7.17;6.47;;;5.40;83.00;;;;;;5119343;28;20509;-45
2022/01/19 00:30:37;;;;;;;6.80;5.80;;;5.20;83.20;;;;;;5118795;28;20743;-44
2022/01/19 00:33:02;;;;;;;9.10;6.90;;;5.10;83.40;;;;;;5119593;28;20709;-44
2022/01/19 00:35:28;;;;;;;7.37;6.40;;;5.00;83.70;;;;;;5119506;28;20204;-44
2022/01/19 00:37:55;;;;;;;7.67;6.60;;;4.90;83.90;;;;;;5101847;28;20450;-44
2022/01/19 00:40:23;;;;;;;6.93;6.23;;;4.80;84.10;;;;;;5119557;28;20420;-45
2022/01/19 00:42:49;;;;;;;7.83;7.17;;;4.70;84.30;;;;;;5119656;28;20176;-45
2022/01/19 00:45:18;;;;;;;10.33;6.83;;;4.60;84.40;;;;;;5119651;28;20506;-45
2022/01/19 00:47:43;;;;;;;9.83;7.03;;;4.50;84.60;;;;;;5118949;28;20496;-45
2022/01/19 00:50:13;;;;;;;6.90;6.20;;;4.40;84.60;;;;;;5119092;28;20414;-45
2022/01/19 00:52:38;;;;;;;8.60;7.80;;;4.30;84.80;;;;;;5119418;28;20184;-45
2022/01/19 00:55:09;;;;;;;8.00;6.90;;;4.20;85.00;;;;;;5119466;28;20461;-45
2022/01/19 00:57:35;;;;;;;9.03;7.60;;;4.10;85.20;;;;;;5118974;28;20184;-44
2022/01/19 01:00:05;;;;;;;9.77;7.17;;;4.10;85.50;;;;;;5101087;28;20796;-45
2022/01/19 01:02:31;;;;;;;11.30;7.53;;;4.00;85.70;;;;;;5083797;28;20891;-45
2022/01/19 01:04:57;;;;;;;7.97;7.17;;;4.00;86.00;;;;;;5119033;28;20451;-45
2022/01/19 01:07:22;;;;;;;7.63;6.83;;;3.90;86.20;;;;;;5118880;28;20697;-45
2022/01/19 01:09:51;;;;;;;9.47;8.00;;;3.90;86.40;;;;;;5118983;28;20180;-45
2022/01/19 01:12:22;;;;;;;11.13;7.43;;;3.80;86.50;;;;;;5114237;27;20192;-45
2022/01/19 01:20:19;;;;;;;9.03;7.43;;;3.60;87.00;;;;;;5098090;28;20851;-43
2022/01/19 01:22:46;;;;;;;10.70;7.93;;;3.60;87.40;;;;;;5097924;28;20926;-44
2022/01/19 01:25:11;;;;;;;8.50;7.40;;;3.60;87.50;;;;;;5098103;28;20488;-44
2022/01/19 01:27:37;;;;;;;9.53;8.53;;;3.60;87.70;;;;;;5080339;28;20423;-44
2022/01/19 01:30:07;;;;;;;9.87;8.20;;;3.50;87.80;;;;;;5097856;28;20189;-44
2022/01/19 01:32:33;;;;;;;8.73;7.80;;;3.50;88.10;;;;;;5097713;28;20423;-44
2022/01/19 01:34:59;;;;;;;9.30;7.20;;;3.50;88.40;;;;;;5097198;28;20516;-44
2022/01/19 01:37:25;;;;;;;8.60;7.80;;;3.50;88.80;;;;;;5098510;28;20241;-44
2022/01/19 01:39:50;;;;;;;9.30;6.90;;;3.50;89.00;;;;;;5100654;28;20445;-44
2022/01/19 01:42:21;;;;;;;9.63;8.70;;;3.50;89.30;;;;;;5087748;28;20234;-44
2022/01/19 01:44:50;;;;;;;9.10;7.50;;;3.50;89.50;;;;;;5118301;28;20180;-44
2022/01/19 01:47:17;;;;;;;9.50;8.07;;;3.50;89.70;;;;;;5100775;28;20418;-44
2022/01/19 01:54:53;;;;;;;9.03;8.13;;;3.50;90.00;;;;;;5096239;28;20522;-44
2022/01/19 01:57:19;;;;;;;9.00;8.07;;;3.50;90.10;;;;;;5096444;28;20418;-44
2022/01/19 01:59:45;;;;;;;10.40;8.90;;;3.50;90.20;;;;;;5096229;28;20411;-44
2022/01/19 02:02:11;;;;;;;10.27;9.13;;;3.50;90.20;;;;;;5096000;28;20452;-44
2022/01/19 02:04:40;;;;;;;9.37;8.47;;;3.50;90.30;;;;;;5096863;28;20464;-43
2022/01/19 02:09:58;;;;;;;10.53;9.43;;;3.60;90.40;;;;;;5096881;28;20669;-44
2022/01/19 02:23:57;;;;;;;10.17;9.10;;;3.50;90.50;;;;;;5096745;28;20436;-44
2022/01/19 02:26:22;;;;;;;10.17;8.80;;;3.50;90.50;;;;;;5092833;28;20426;-45
2022/01/19 02:42:27;;;;;;;13.80;11.10;;;3.30;90.40;;;;;;5116607;28;20440;-45
2022/01/19 02:49:52;;;;;;;12.20;10.47;;;3.20;90.50;;;;;;5121813;28;20229;-45
2022/01/19 02:55:40;;;;;;;12.53;10.37;;;3.10;90.50;;;;;;5121167;28;20804;-45
2022/01/19 02:58:05;;;;;;;12.43;9.60;;;3.10;90.60;;;;;;5121193;28;20426;-45
2022/01/19 03:08:50;;;;;;;14.23;9.27;;;3.00;90.90;;;;;;5120948;28;20525;-45
2022/01/19 03:11:18;;;;;;;12.00;8.83;;;2.90;91.00;;;;;;5121059;28;20517;-45
2022/01/19 03:13:45;;;;;;;15.37;10.30;;;2.90;91.00;;;;;;5120809;28;20435;-44
2022/01/19 03:16:11;;;;;;;10.70;8.77;;;2.90;91.00;;;;;;5120752;28;20441;-45
2022/01/19 03:18:37;;;;;;;15.23;10.63;;;2.80;91.00;;;;;;5120751;28;20417;-44
2022/01/19 03:21:03;;;;;;;12.50;9.30;;;2.80;91.00;;;;;;5119804;28;20429;-44
2022/01/19 03:23:29;;;;;;;9.90;8.87;;;2.80;91.10;;;;;;5120193;28;20275;-44
2022/01/19 03:25:57;;;;;;;10.50;9.40;;;2.80;91.10;;;;;;5120448;28;20528;-45
2022/01/19 03:28:22;;;;;;;10.40;9.17;;;2.70;91.10;;;;;;5120303;28;20242;-45
2022/01/19 03:30:48;;;;;;;12.10;8.77;;;2.70;91.10;;;;;;5120388;28;20530;-44
2022/01/19 03:33:15;;;;;;;11.20;9.20;;;2.70;91.00;;;;;;5120950;28;20176;-45
2022/01/19 03:35:40;;;;;;;13.90;8.80;;;2.70;91.00;;;;;;5120518;28;20500;-45
2022/01/19 03:38:12;;;;;;;13.47;9.27;;;2.60;90.90;;;;;;5120843;28;20414;-45
2022/01/19 03:40:38;;;;;;;11.87;8.90;;;2.60;90.90;;;;;;5120391;28;20179;-45
2022/01/19 03:43:07;;;;;;;14.40;9.10;;;2.60;90.90;;;;;;5120947;28;20484;-44
2022/01/19 03:45:34;;;;;;;13.00;9.00;;;2.60;90.90;;;;;;5119775;28;20422;-45
2022/01/19 03:49:11;;;;;;;12.87;9.50;;;2.50;90.90;;;;;;5119779;28;20887;-44
2022/01/19 03:50:55;;;;;;;11.43;8.70;;;2.50;90.90;;;;;;5097705;28;20454;-44
2022/01/19 03:53:21;;;;;;;13.33;8.63;;;2.50;91.00;;;;;;5120887;28;20490;-45
2022/01/19 03:55:47;;;;;;;11.17;8.07;;;2.50;91.00;;;;;;5120042;28;20219;-43
2022/01/19 03:58:12;;;;;;;10.53;8.70;;;2.40;90.90;;;;;;5119138;28;20168;-45
2022/01/19 04:00:42;;;;;;;12.67;8.13;;;2.40;90.90;;;;;;5120020;28;20176;-44
2022/01/19 04:03:11;;;;;;;12.10;8.50;;;2.40;90.80;;;;;;5120522;28;20259;-45
2022/01/19 04:08:09;;;;;;;11.53;9.50;;;2.30;90.80;;;;;;5119851;28;20514;-45
2022/01/19 04:10:35;;;;;;;13.30;8.17;;;2.30;90.90;;;;;;5119528;28;20889;-45
2022/01/19 04:13:23;;;;;;;11.83;9.73;;;2.30;90.80;;;;;;5119804;28;20418;-44
2022/01/19 04:15:49;;;;;;;12.43;9.37;;;2.20;90.70;;;;;;5118967;28;20483;-45
2022/01/19 04:18:15;;;;;;;11.60;9.17;;;2.20;90.80;;;;;;5120157;28;20410;-44
2022/01/19 04:20:43;;;;;;;10.90;9.00;;;2.20;90.70;;;;;;5119321;28;20503;-44
2022/01/19 04:23:08;;;;;;;14.57;8.90;;;2.10;90.70;;;;;;5118938;28;20179;-44
2022/01/19 04:25:34;;;;;;;14.80;9.80;;;2.10;90.70;;;;;;5118801;28;20520;-44
2022/01/19 04:28:06;;;;;;;11.73;9.60;;;2.10;90.70;;;;;;5118514;28;20232;-44
2022/01/19 04:30:32;;;;;;;15.10;10.43;;;2.10;90.70;;;;;;5118807;28;20494;-43
2022/01/19 04:35:26;;;;;;;11.60;8.33;;;2.00;90.70;;;;;;5119226;28;20224;-44
2022/01/19 04:46:13;;;;;;;10.90;9.07;;;2.00;90.80;;;;;;5118104;28;20440;-44
2022/01/19 05:07:24;;;;;;;15.67;10.50;;;2.20;91.90;;;;;;5117582;27;20453;-48
2022/01/19 05:15:15;;;;;;;15.70;10.60;;;2.40;92.40;;;;;;5109072;28;20465;-48
2022/01/19 05:17:41;;;;;;;15.83;11.03;;;2.40;92.40;;;;;;5107874;28;20438;-48
2022/01/19 05:20:08;;;;;;;12.73;10.90;;;2.40;92.40;;;;;;5110928;27;20461;-48
2022/01/19 05:22:34;;;;;;;15.50;10.53;;;2.50;92.50;;;;;;5093606;28;20460;-48
2022/01/19 05:25:03;;;;;;;14.23;11.00;;;2.50;92.50;;;;;;5109221;28;20462;-48
2022/01/19 05:27:29;;;;;;;14.60;10.37;;;2.50;92.40;;;;;;5109884;28;20681;-48
2022/01/19 05:29:55;;;;;;;15.20;10.83;;;2.50;92.40;;;;;;5103149;28;20763;-48
2022/01/19 05:32:23;;;;;;;11.90;10.47;;;2.50;92.50;;;;;;5096581;28;20446;-48
2022/01/19 05:34:48;;;;;;;21.20;9.97;;;2.50;92.40;;;;;;5096414;28;20267;-48
2022/01/19 05:37:14;;;;;;;14.13;10.93;;;2.50;92.50;;;;;;5095940;28;20438;-48
2022/01/19 05:39:40;;;;;;;15.13;11.70;;;2.50;92.50;;;;;;5096681;28;20193;-48
2022/01/19 05:42:14;;;;;;;15.50;10.00;;;2.50;92.50;;;;;;5096633;28;20169;-47
2022/01/19 05:44:44;;;;;;;13.93;10.33;;;2.60;92.50;;;;;;5097033;28;20241;-48
2022/01/19 05:47:11;;;;;;;14.40;10.50;;;2.60;92.40;;;;;;5096536;28;20483;-48
2022/01/19 05:49:37;;;;;;;14.73;10.87;;;2.60;92.30;;;;;;5095567;28;20494;-48
2022/01/19 05:52:04;;;;;;;12.13;10.13;;;2.60;92.30;;;;;;5095242;28;20430;-48
2022/01/19 05:54:30;;;;;;;13.83;11.07;;;2.60;92.30;;;;;;5095955;28;20459;-48
2022/01/19 05:56:56;;;;;;;15.00;12.40;;;2.60;92.30;;;;;;5095191;28;20430;-48
2022/01/19 05:59:22;;;;;;;14.67;12.23;;;2.60;92.30;;;;;;5094635;28;20729;-48
2022/01/19 06:01:48;;;;;;;12.67;11.07;;;2.60;92.30;;;;;;5078067;28;20563;-48
2022/01/19 06:04:14;;;;;;;15.73;11.13;;;2.60;92.30;;;;;;5095563;28;20439;-48
2022/01/19 06:06:39;;;;;;;12.50;10.80;;;2.60;92.30;;;;;;5096157;28;20461;-48
2022/01/19 06:09:20;;;;;;;13.03;10.50;;;2.60;92.40;;;;;;5095050;28;20169;-48
2022/01/19 06:11:46;;;;;;;15.27;10.93;;;2.60;92.40;;;;;;5093639;28;20210;-48
2022/01/19 06:14:11;;;;;;;13.80;11.47;;;2.60;92.40;;;;;;5093426;28;20963;-48
2022/01/19 06:16:39;;;;;;;18.40;12.60;;;2.50;92.30;;;;;;5091842;28;20181;-48
2022/01/19 06:19:05;;;;;;;18.73;15.00;;;2.60;92.40;;;;;;5091750;28;20555;-48
2022/01/19 06:21:31;;;;;;;13.93;11.57;;;2.60;92.30;;;;;;5094606;28;20409;-48
2022/01/19 06:23:56;;;;;;;18.50;11.83;;;2.50;92.30;;;;;;5096008;28;20836;-48
2022/01/19 06:26:22;;;;;;;16.90;12.20;;;2.50;92.30;;;;;;5097541;28;20175;-48
2022/01/19 06:28:48;;;;;;;13.47;12.10;;;2.50;92.30;;;;;;5078453;28;20232;-46
2022/01/19 06:31:13;;;;;;;13.83;12.20;;;2.50;92.30;;;;;;5096696;28;20172;-46
2022/01/19 06:33:39;;;;;;;15.57;11.57;;;2.50;92.30;;;;;;5096919;28;20188;-47
2022/01/19 06:36:07;;;;;;;14.40;12.10;;;2.50;92.20;;;;;;5097969;28;20617;-47
2022/01/19 06:38:33;;;;;;;14.07;12.20;;;2.50;92.30;;;;;;5080555;28;20184;-47
2022/01/19 06:40:58;;;;;;;15.87;11.90;;;2.50;92.30;;;;;;5098071;28;20418;-48
2022/01/19 06:43:26;;;;;;;16.97;13.37;;;2.40;92.30;;;;;;5080141;28;20177;-48
2022/01/19 06:45:54;;;;;;;15.73;12.97;;;2.50;92.40;;;;;;5096830;28;20577;-48
2022/01/19 06:48:20;;;;;;;16.73;12.00;;;2.40;92.30;;;;;;5097236;28;20438;-48
2022/01/19 06:50:45;;;;;;;14.00;12.17;;;2.40;92.30;;;;;;5098507;28;20525;-48
2022/01/19 06:53:11;;;;;;;15.13;12.97;;;2.40;92.30;;;;;;5096871;28;20325;-48
2022/01/19 06:55:36;;;;;;;14.83;12.80;;;2.40;92.30;;;;;;5098261;28;20602;-48
2022/01/19 06:58:02;;;;;;;15.87;12.97;;;2.30;92.30;;;;;;5079306;28;20173;-48
2022/01/19 07:00:28;;;;;;;18.13;13.30;;;2.30;92.30;;;;;;5115135;28;20183;-48
2022/01/19 07:02:53;;;;;;;15.60;12.83;;;2.30;92.10;;;;;;5109122;28;20207;-48
2022/01/19 07:05:19;;;;;;;14.00;12.60;;;2.30;92.10;;;;;;5099538;28;20187;-48
2022/01/19 07:07:45;;;;;;;15.40;12.77;;;2.30;92.00;;;;;;5117969;28;20454;-48
2022/01/19 07:10:10;;;;;;;15.20;12.83;;;2.30;92.00;;;;;;5118544;28;20183;-48
2022/01/19 07:12:36;;;;;;;15.00;12.83;;;2.30;92.10;;;;;;5119046;28;20255;-48
2022/01/19 07:15:06;;;;;;;16.03;12.73;;;2.30;92.40;;;;;;5118900;28;20481;-48
2022/01/19 07:17:32;;;;;;;18.60;13.43;;;2.30;92.00;;;;;;5118890;28;20466;-48
2022/01/19 07:19:59;;;;;;;15.33;13.70;;;2.30;92.00;;;;;;5117644;28;20538;-48
2022/01/19 07:22:25;;;;;;;15.13;12.97;;;2.30;91.90;;;;;;5109831;28;20180;-48
2022/01/19 07:24:51;;;;;;;15.20;13.47;;;2.30;91.80;;;;;;5119105;28;20418;-48
2022/01/19 07:27:17;;;;;;;16.03;13.60;;;2.30;91.90;;;;;;5119604;28;20182;-48
2022/01/19 07:29:42;;;;;;;18.33;15.00;;;2.30;91.90;;;;;;5118931;28;20465;-48
2022/01/19 07:32:10;;;;;;;16.70;14.03;;;2.30;91.90;;;;;;5117119;28;20458;-49
2022/01/19 07:34:35;;;;;;;16.70;13.43;;;2.40;92.00;;;;;;5119162;28;20302;-48
2022/01/19 07:37:03;;;;;;;15.07;13.50;;;2.40;91.90;;;;;;5118954;28;20493;-48
2022/01/19 07:39:29;;;;;;;16.20;13.83;;;2.40;91.70;;;;;;5118990;28;20245;-48
2022/01/19 07:41:55;;;;;;;18.77;14.90;;;2.50;91.70;;;;;;5118823;28;20700;-48
2022/01/19 07:44:24;;;;;;;18.20;15.33;;;2.60;91.60;;;;;;5100272;28;20331;-48
2022/01/19 07:46:51;;;;;;;18.30;14.80;;;2.70;91.60;;;;;;5118985;28;20850;-48
2022/01/19 07:49:17;;;;;;;17.17;15.27;;;2.90;91.60;;;;;;5099915;28;20703;-48
2022/01/19 07:51:43;;;;;;;17.80;14.80;;;3.10;91.50;;;;;;5116677;28;20418;-48
2022/01/19 07:54:12;;;;;;;16.70;14.63;;;3.40;91.40;;;;;;5116333;28;20499;-48
2022/01/19 07:56:37;;;;;;;15.23;13.27;;;3.60;91.10;;;;;;5116340;28;20240;-48
2022/01/19 07:59:03;;;;;;;18.83;15.70;;;3.90;90.90;;;;;;5115732;28;20422;-48
2022/01/19 08:01:31;;;;;;;20.93;15.90;;;4.20;90.60;;;;;;5116989;28;20266;-48
2022/01/19 08:03:58;;;;;;;18.00;14.13;;;4.40;90.20;;;;;;5118354;28;20241;-48
2022/01/19 08:06:27;;;;;;;15.20;13.53;;;4.70;89.60;;;;;;5118777;28;20424;-43
2022/01/19 08:08:55;;;;;;;19.53;15.97;;;5.10;89.10;;;;;;5117633;28;20452;-40
2022/01/19 08:11:21;;;;;;;17.50;14.67;;;5.40;88.00;;;;;;5117441;28;20421;-41
2022/01/19 08:13:47;;;;;;;16.20;14.27;;;5.80;87.00;;;;;;5118093;28;20936;-41
2022/01/19 08:16:12;;;;;;;17.13;14.10;;;6.10;86.00;;;;;;5117451;28;20231;-40
2022/01/19 08:18:38;;;;;;;15.83;12.90;;;6.50;84.80;;;;;;5098523;28;20252;-43
2022/01/19 08:21:04;;;;;;;14.30;12.90;;;6.80;83.60;;;;;;5116771;28;20214;-41
2022/01/19 08:23:29;;;;;;;15.33;13.70;;;7.20;82.70;;;;;;5117200;28;20183;-40
2022/01/19 08:25:55;;;;;;;14.37;12.70;;;7.70;82.10;;;;;;5117442;28;20192;-40
2022/01/19 08:28:23;;;;;;;15.37;12.50;;;8.30;81.10;;;;;;5102626;28;20717;-40
2022/01/19 08:30:51;;;;;;;15.37;13.00;;;9.00;79.30;;;;;;5101842;28;20177;-40
2022/01/19 08:33:17;;;;;;;16.80;13.37;;;9.70;77.40;;;;;;5097045;28;20748;-40
2022/01/19 08:35:43;;;;;;;13.93;12.50;;;10.40;72.80;;;;;;5094274;28;20452;-40
2022/01/19 08:38:08;;;;;;;14.83;13.33;;;11.10;69.70;;;;;;5096812;28;20188;-40
2022/01/19 08:40:36;;;;;;;15.27;13.47;;;11.70;66.00;;;;;;5095324;28;20168;-41
2022/01/19 08:43:03;;;;;;;13.20;12.00;;;12.50;63.60;;;;;;5093747;28;20421;-40
2022/01/19 08:45:28;;;;;;;13.20;11.80;;;13.30;61.00;;;;;;5095697;28;20848;-40
2022/01/19 08:47:54;;;;;;;12.73;11.53;;;14.20;58.80;;;;;;5094107;28;20442;-40
2022/01/19 08:50:20;;;;;;;12.17;11.13;;;15.00;56.60;;;;;;5093984;28;20575;-41
2022/01/19 08:52:46;;;;;;;12.87;11.67;;;15.90;54.30;;;;;;5095266;28;20186;-41
2022/01/19 08:55:12;;;;;;;11.57;10.50;;;16.70;50.50;;;;;;5074530;28;20294;-41
2022/01/19 08:57:38;;;;;;;11.57;10.47;;;17.50;49.40;;;;;;5093462;28;20506;-42
2022/01/19 09:00:11;;;;;;;11.40;10.30;;;18.50;47.20;;;;;;5094594;28;20469;-41
2022/01/19 09:02:37;;;;;;;11.60;10.50;;;19.30;45.00;;;;;;5094034;28;20444;-41
2022/01/19 09:05:03;;;;;;;11.13;10.07;;;20.00;43.20;;;;;;5095787;28;20414;-42
2022/01/19 09:07:29;;;;;;;11.00;10.00;;;20.70;41.30;;;;;;5093633;28;20199;-41
2022/01/19 09:09:57;;;;;;;11.80;10.67;;;21.30;40.00;;;;;;5094890;28;20413;-42
2022/01/19 09:12:24;;;;;;;11.43;10.30;;;21.90;39.00;;;;;;5094682;28;20195;-42
2022/01/19 09:14:49;;;;;;;11.37;10.47;;;22.40;37.70;;;;;;5094549;28;20478;-42
2022/01/19 09:17:15;;;;;;;9.90;8.90;;;22.80;36.80;;;;;;5095431;28;20416;-42
2022/01/19 09:19:43;;;;;;;11.20;10.30;;;23.40;36.30;;;;;;5095828;28;20169;-43
2022/01/19 09:22:09;;;;;;;11.60;10.70;;;23.70;35.10;;;;;;5077787;28;20566;-44
2022/01/19 09:24:39;;;;;;;10.77;9.80;;;23.90;34.00;;;;;;5093691;28;20407;-44
2022/01/19 09:27:08;;;;;;;10.67;9.67;;;24.40;33.70;;;;;;5093022;28;20426;-42
2022/01/19 09:29:34;;;;;;;9.17;8.47;;;24.70;32.90;;;;;;5092187;28;20479;-43
2022/01/19 09:32:01;;;;;;;9.73;8.93;;;24.90;32.80;;;;;;5094857;28;20813;-43
2022/01/19 09:34:27;;;;;;;10.87;9.90;;;25.70;32.20;;;;;;5094331;28;20753;-44
2022/01/19 09:36:53;;;;;;;10.67;9.77;;;25.90;31.50;;;;;;5094250;28;20415;-42
2022/01/19 09:39:21;;;;;;;9.63;8.87;;;26.00;30.80;;;;;;5094038;28;20522;-43
2022/01/19 09:41:48;;;;;;;9.80;9.00;;;26.80;30.40;;;;;;5094013;28;20506;-42
2022/01/19 09:44:17;;;;;;;10.60;9.70;;;27.20;29.80;;;;;;5095135;28;20408;-42
2022/01/19 09:46:43;;;;;;;10.43;9.63;;;27.80;29.30;;;;;;5095088;28;20721;-42
2022/01/19 09:49:09;;;;;;;9.30;8.50;;;28.00;28.50;;;;;;5096119;28;20411;-41
2022/01/19 09:51:35;;;;;;;9.80;9.00;;;28.10;28.40;;;;;;5096035;28;20424;-41
2022/01/19 09:54:01;;;;;;;8.53;7.90;;;28.50;28.30;;;;;;5096148;28;20409;-41
2022/01/19 09:56:27;;;;;;;9.53;8.73;;;28.70;27.90;;;;;;5095514;28;20194;-41
2022/01/19 09:58:53;;;;;;;8.00;7.40;;;29.20;27.70;;;;;;5097187;28;20627;-46
2022/01/19 10:01:20;;;;;;;9.20;8.50;;;29.60;27.70;;;;;;5095735;28;20250;-45
2022/01/19 10:03:46;;;;;;;9.60;8.77;;;30.20;27.40;;;;;;5097270;28;20181;-42
2022/01/19 10:06:17;;;;;;;8.63;7.93;;;30.40;27.00;;;;;;5096713;28;20510;-44
2022/01/19 10:08:48;;;;;;;8.20;7.60;;;30.80;26.70;;;;;;5094680;28;20565;-44
2022/01/19 10:11:29;;;;;;;8.60;7.90;;;31.00;26.40;;;;;;5095474;28;20421;-44
2022/01/19 10:17:00;;;;;;;6.17;5.67;;;31.60;26.10;;;;;;5095843;28;20447;-44
2022/01/19 10:19:29;;;;;;;4.93;4.47;;;31.60;27.70;;;;;;5095476;28;20512;-43
2022/01/19 10:22:02;;;;;;;4.27;3.70;;;30.90;28.90;;;;;;5096156;28;20456;-45
2022/01/19 10:24:40;;;;;;;5.73;4.30;;;30.10;29.80;;;;;;5093481;28;20508;-45
2022/01/19 10:27:26;;;;;;;4.43;4.10;;;29.50;30.20;;;;;;5094236;28;20452;-44
2022/01/19 10:30:06;;;;;;;8.00;7.30;;;28.90;30.20;;;;;;5093261;28;20562;-44
2022/01/19 10:32:33;;;;;;;6.17;5.67;;;28.30;29.40;;;;;;5093228;28;20409;-44
2022/01/19 10:35:12;;;;;;;5.00;4.60;;;27.90;29.70;;;;;;5094000;28;20493;-46
2022/01/19 10:37:38;;;;;;;6.47;5.87;;;27.80;30.20;;;;;;5092802;28;20464;-43
2022/01/19 10:40:07;;;;;;;5.17;4.67;;;27.70;30.20;;;;;;5091617;28;20898;-46
2022/01/19 10:42:34;;;;;;;7.40;6.73;;;27.80;30.40;;;;;;5104525;28;20632;-47
2022/01/19 10:45:06;;;;;;;5.50;5.00;;;27.80;29.90;;;;;;5113610;28;20484;-43
2022/01/19 10:47:40;;;;;;;5.90;5.30;;;27.80;30.00;;;;;;5113729;28;20417;-46
2022/01/19 10:50:10;;;;;;;6.00;5.50;;;27.90;30.10;;;;;;5115293;28;20490;-44
2022/01/19 10:52:37;;;;;;;5.80;5.33;;;27.90;30.00;;;;;;5114074;28;20374;-44
2022/01/19 10:55:10;;;;;;;5.73;5.13;;;28.10;29.90;;;;;;5114796;28;20434;-46
2022/01/19 10:57:39;;;;;;;5.73;5.23;;;28.30;29.90;;;;;;5115600;28;20399;-44
2022/01/19 11:00:28;;;;;;;9.63;5.43;;;28.30;29.70;;;;;;5113294;28;20432;-45
2022/01/19 11:02:56;;;;;;;5.40;5.00;;;28.50;29.60;;;;;;5112959;28;20732;-44
2022/01/19 11:05:43;;;;;;;5.00;4.60;;;28.60;29.50;;;;;;5115290;28;20480;-43
2022/01/19 11:08:09;;;;;;;6.60;4.90;;;28.50;29.50;;;;;;5118854;28;20696;-43
2022/01/19 11:10:36;;;;;;;4.70;4.30;;;28.60;29.60;;;;;;5117473;28;20398;-45
2022/01/19 11:13:05;;;;;;;4.77;4.23;;;28.90;29.30;;;;;;5098609;28;20401;-42
2022/01/19 11:15:31;;;;;;;4.80;4.40;;;29.10;29.20;;;;;;5115511;28;20797;-44
2022/01/19 11:17:56;;;;;;;6.73;5.10;;;29.30;28.90;;;;;;5115330;28;20525;-44
2022/01/19 11:20:24;;;;;;;6.57;5.17;;;29.50;28.90;;;;;;5116536;28;20562;-43
2022/01/19 11:23:07;;;;;;;5.70;5.20;;;29.40;29.00;;;;;;5116494;28;20195;-44
2022/01/19 11:25:39;;;;;;;4.77;4.37;;;29.30;28.60;;;;;;5100357;28;21010;-46
2022/01/19 11:28:04;;;;;;;4.83;4.40;;;29.50;29.10;;;;;;5118040;28;20469;-44
2022/01/19 11:30:34;;;;;;;5.33;4.83;;;29.50;30.00;;;;;;5117815;28;20451;-44
2022/01/19 11:33:25;;;;;;;6.00;5.43;;;29.70;29.70;;;;;;5117730;28;20185;-43
2022/01/19 11:36:25;;;;;;;5.53;5.13;;;29.50;28.70;;;;;;5118831;28;20428;-46
2022/01/19 11:39:03;;;;;;;6.60;5.43;;;29.50;29.00;;;;;;5094703;28;20427;-43
2022/01/19 11:41:39;;;;;;;5.40;4.90;;;29.50;28.00;;;;;;5099619;28;20897;-44
2022/01/19 11:44:07;;;;;;;4.73;4.33;;;29.50;28.70;;;;;;5119186;28;20421;-44
2022/01/19 11:46:44;;;;;;;5.70;5.20;;;29.50;29.20;;;;;;5100801;28;20433;-42
2022/01/19 11:49:12;;;;;;;7.43;4.50;;;29.60;29.00;;;;;;5119056;28;20525;-42
2022/01/19 11:51:43;;;;;;;5.80;4.77;;;29.70;29.40;;;;;;5118542;28;20442;-43
2022/01/19 11:54:29;;;;;;;6.53;5.00;;;29.80;29.60;;;;;;5119036;28;20728;-43
2022/01/19 11:57:04;;;;;;;4.20;3.80;;;29.80;29.30;;;;;;5101156;28;20593;-45
2022/01/19 11:59:48;;;;;;;5.67;5.20;;;29.80;29.00;;;;;;5119342;28;20733;-43
2022/01/19 12:02:28;;;;;;;6.23;5.73;;;29.70;28.70;;;;;;5118012;28;20433;-43
2022/01/19 12:05:19;;;;;;;5.87;5.27;;;29.70;28.10;;;;;;5117802;28;20451;-43
2022/01/19 12:07:53;;;;;;;5.70;5.20;;;29.80;28.60;;;;;;5098854;28;20454;-44
2022/01/19 12:10:42;;;;;;;6.30;5.13;;;29.60;28.20;;;;;;5116709;28;20430;-44
2022/01/19 12:13:55;;;;;;;4.80;4.40;;;29.80;28.90;;;;;;5116626;28;20427;-44
2022/01/19 12:19:06;;;;;;;7.80;7.20;;;29.90;29.00;;;;;;5114048;28;20462;-43
2022/01/19 12:21:35;;;;;;;6.50;6.00;;;29.90;27.60;;;;;;5116139;28;20506;-43
2022/01/19 12:24:25;;;;;;;6.63;5.60;;;29.90;28.10;;;;;;5116785;28;20178;-42
2022/01/19 12:27:06;;;;;;;5.97;5.47;;;29.90;28.90;;;;;;5116419;28;20385;-42
2022/01/19 12:29:36;;;;;;;6.10;5.60;;;29.90;28.40;;;;;;5115276;28;20438;-45
2022/01/19 12:32:09;;;;;;;5.60;5.10;;;30.10;29.40;;;;;;5113205;28;20729;-42
2022/01/19 12:34:46;;;;;;;5.80;5.27;;;30.20;29.70;;;;;;5113954;28;20413;-43
2022/01/19 12:37:34;;;;;;;5.47;4.93;;;30.30;29.40;;;;;;5113869;28;20383;-43
2022/01/19 12:40:03;;;;;;;6.40;5.80;;;30.50;29.20;;;;;;5096618;28;20405;-42
2022/01/19 12:42:44;;;;;;;7.10;6.50;;;30.60;28.70;;;;;;5098148;28;20414;-43
2022/01/19 12:45:20;;;;;;;5.70;5.00;;;30.60;28.20;;;;;;5114696;28;20917;-44
2022/01/19 12:47:47;;;;;;;5.77;5.37;;;30.80;29.20;;;;;;5113456;28;20427;-44
2022/01/19 12:50:13;;;;;;;6.03;5.53;;;31.00;28.90;;;;;;5113298;28;20483;-43
2022/01/19 12:52:43;;;;;;;6.40;5.80;;;31.00;28.40;;;;;;5093590;28;20459;-43
2022/01/19 12:55:18;;;;;;;7.10;6.50;;;30.70;28.70;;;;;;5077120;28;20464;-44
2022/01/19 12:57:44;;;;;;;7.73;7.10;;;30.10;28.80;;;;;;5076292;28;20412;-43
2022/01/19 13:00:20;;;;;;;7.80;7.13;;;29.50;28.00;;;;;;5095056;28;20485;-44
2022/01/19 13:02:46;;;;;;;6.53;5.93;;;29.30;27.90;;;;;;5094352;28;20408;-44
2022/01/19 13:05:15;;;;;;;6.30;5.50;;;29.50;28.40;;;;;;5094032;28;20860;-42
2022/01/19 13:07:46;;;;;;;6.63;5.87;;;29.80;28.50;;;;;;5096101;28;20419;-43
2022/01/19 13:12:56;;;;;;;6.30;5.70;;;30.50;28.70;;;;;;5077627;28;20521;-42
2022/01/19 13:15:43;;;;;;;6.73;5.60;;;30.80;28.40;;;;;;5094392;28;20423;-42
2022/01/19 13:18:10;;;;;;;6.93;6.10;;;30.50;28.30;;;;;;5076527;28;20428;-42
2022/01/19 13:20:47;;;;;;;6.03;4.93;;;29.60;27.80;;;;;;5094780;28;20441;-42
2022/01/19 13:23:12;;;;;;;6.47;5.77;;;28.70;27.90;;;;;;5095305;28;20433;-42
2022/01/19 13:25:38;;;;;;;6.30;5.80;;;28.10;28.40;;;;;;5096055;28;20472;-45
2022/01/19 13:28:04;;;;;;;4.77;4.37;;;27.50;28.60;;;;;;5099498;28;20364;-42
2022/01/19 13:30:31;;;;;;;6.40;5.80;;;27.00;28.70;;;;;;5114664;28;20206;-45
2022/01/19 13:32:58;;;;;;;5.70;5.00;;;26.40;29.30;;;;;;5116101;28;20261;-43
2022/01/19 13:35:26;;;;;;;5.67;5.17;;;26.10;29.90;;;;;;5114480;28;20469;-46
2022/01/19 13:37:59;;;;;;;5.70;4.90;;;25.90;30.00;;;;;;5115643;28;20506;-43
2022/01/19 13:40:29;;;;;;;4.83;4.43;;;25.90;30.00;;;;;;5114926;28;20429;-44
2022/01/19 13:42:57;;;;;;;5.43;4.93;;;25.90;30.00;;;;;;5112831;28;20420;-46
2022/01/19 13:50:41;;;;;;;5.93;5.40;;;27.00;29.40;;;;;;5116528;28;20436;-43
2022/01/19 13:53:07;;;;;;;8.47;7.77;;;27.30;28.40;;;;;;5115672;28;20427;-43
2022/01/19 13:55:34;;;;;;;6.67;6.00;;;27.40;27.60;;;;;;5113348;28;20412;-42
2022/01/19 13:58:05;;;;;;;6.03;5.53;;;27.30;28.00;;;;;;5096987;28;20438;-43
2022/01/19 14:00:31;;;;;;;7.37;6.73;;;27.60;28.10;;;;;;5114978;28;20472;-43
2022/01/19 14:03:01;;;;;;;7.13;6.53;;;27.30;27.80;;;;;;5115310;28;20435;-47
2022/01/19 14:05:59;;;;;;;7.10;6.50;;;27.00;27.80;;;;;;5114906;28;20462;-43
2022/01/19 14:08:33;;;;;;;6.30;5.70;;;26.00;28.30;;;;;;5068702;28;20711;-43
2022/01/19 14:11:00;;;;;;;5.60;5.17;;;25.10;28.90;;;;;;5111222;28;20849;-44
2022/01/19 14:13:33;;;;;;;6.87;6.17;;;24.40;29.60;;;;;;5113914;28;20411;-43
2022/01/19 14:16:20;;;;;;;7.50;6.90;;;23.70;30.00;;;;;;5111952;28;20444;-42
2022/01/19 14:19:05;;;;;;;7.17;6.53;;;22.70;30.30;;;;;;5093570;28;20411;-42
2022/01/19 14:21:31;;;;;;;6.50;5.90;;;21.90;31.20;;;;;;5112087;28;20433;-41
2022/01/19 14:23:59;;;;;;;5.50;5.00;;;21.20;31.90;;;;;;5114662;28;20708;-43
2022/01/19 14:26:26;;;;;;;5.47;4.97;;;20.70;33.30;;;;;;5114382;28;20697;-42
2022/01/19 14:29:12;;;;;;;5.10;4.63;;;20.30;34.10;;;;;;5096917;28;20548;-43
2022/01/19 14:31:53;;;;;;;7.17;6.47;;;19.90;34.50;;;;;;5114968;28;20418;-42
2022/01/19 14:34:32;;;;;;;7.20;5.50;;;19.50;34.60;;;;;;5112417;28;20465;-44
2022/01/19 14:37:16;;;;;;;6.10;5.47;;;19.10;35.20;;;;;;5114636;28;20708;-42
2022/01/19 14:40:00;;;;;;;7.03;6.07;;;18.80;35.60;;;;;;5112800;28;20426;-46